createdAt,value
2019-03-10T00:00:31.113Z,2.83
2019-03-10T00:02:59.542Z,2.50
2019-03-10T00:05:28.018Z,2.23
2019-03-10T00:07:56.526Z,2.50
2019-03-10T00:10:25.011Z,2.27
2019-03-10T00:12:53.525Z,2.20
2019-03-10T00:15:21.945Z,2.30
2019-03-10T00:17:50.437Z,2.53
2019-03-10T00:20:19.587Z,2.47
2019-03-10T00:22:48.008Z,2.00
2019-03-10T00:25:16.489Z,1.97
2019-03-10T00:27:45.012Z,2.17
2019-03-10T00:30:16.429Z,1.90
2019-03-10T00:32:44.985Z,2.10
2019-03-10T00:35:14.069Z,1.90
2019-03-10T00:37:42.535Z,1.93
2019-03-10T00:40:48.213Z,1.80
2019-03-10T00:43:34.866Z,1.82
2019-03-10T00:46:24.766Z,1.73
2019-03-10T00:49:02.003Z,1.80
2019-03-10T00:51:48.620Z,2.40
2019-03-10T00:54:17.053Z,2.10
2019-03-10T00:56:45.469Z,1.70
2019-03-10T00:59:13.915Z,2.03
2019-03-10T01:01:42.332Z,2.33
2019-03-10T01:04:10.899Z,1.70
2019-03-10T01:06:39.438Z,2.00
2019-03-10T01:09:07.845Z,2.07
2019-03-10T01:11:36.513Z,1.70
2019-03-10T01:14:04.993Z,2.23
2019-03-10T01:16:34.045Z,1.90
2019-03-10T01:19:03.299Z,1.90
2019-03-10T01:21:34.378Z,1.60
2019-03-10T01:24:02.790Z,2.03
2019-03-10T01:26:31.213Z,1.90
2019-03-10T01:28:59.660Z,1.53
2019-03-10T01:31:31.124Z,1.73
2019-03-10T01:34:05.483Z,2.20
2019-03-10T01:36:32.736Z,1.77
2019-03-10T01:39:01.193Z,1.60
2019-03-10T01:41:29.609Z,1.50
2019-03-10T01:43:58.070Z,1.60
2019-03-10T01:46:26.494Z,1.70
2019-03-10T01:48:54.954Z,1.93
2019-03-10T01:51:23.366Z,1.83
2019-03-10T01:53:51.773Z,1.53
2019-03-10T01:56:20.218Z,1.50
2019-03-10T01:58:48.647Z,1.63
2019-03-10T02:01:17.059Z,1.80
2019-03-10T02:03:45.500Z,1.80
2019-03-10T02:06:13.920Z,1.70
2019-03-10T02:08:42.360Z,1.60
2019-03-10T02:11:10.789Z,1.60
2019-03-10T02:13:39.263Z,1.97
2019-03-10T02:16:07.936Z,1.30
2019-03-10T02:18:36.365Z,1.40
2019-03-10T02:21:04.871Z,1.87
2019-03-10T02:23:33.304Z,1.57
2019-03-10T02:26:01.742Z,1.60
2019-03-10T02:28:30.180Z,2.23
2019-03-10T02:30:58.603Z,1.63
2019-03-10T02:33:27.019Z,1.50
2019-03-10T02:35:55.450Z,1.10
2019-03-10T02:38:23.871Z,1.83
2019-03-10T02:40:52.300Z,1.50
2019-03-10T02:43:20.775Z,1.27
2019-03-10T02:45:49.256Z,1.30
2019-03-10T02:48:17.664Z,1.50
2019-03-10T02:50:46.130Z,2.00
2019-03-10T02:53:14.575Z,1.33
2019-03-10T02:55:43.082Z,1.77
2019-03-10T02:58:11.518Z,1.57
2019-03-10T03:00:39.963Z,1.93
2019-03-10T03:03:08.363Z,1.70
2019-03-10T03:05:36.801Z,1.33
2019-03-10T03:08:05.230Z,1.23
2019-03-10T03:10:33.630Z,1.50
2019-03-10T03:13:02.228Z,1.73
2019-03-10T03:15:30.660Z,1.37
2019-03-10T03:17:59.200Z,1.33
2019-03-10T03:20:27.597Z,1.40
2019-03-10T03:22:56.000Z,1.70
2019-03-10T03:25:24.610Z,1.43
2019-03-10T03:27:53.053Z,1.73
2019-03-10T03:30:21.737Z,1.60
2019-03-10T03:32:50.198Z,1.30
2019-03-10T03:35:44.351Z,1.37
2019-03-10T03:38:12.788Z,1.30
2019-03-10T03:40:44.247Z,1.47
2019-03-10T03:43:12.658Z,1.40
2019-03-10T03:45:41.078Z,1.50
2019-03-10T03:48:09.494Z,1.13
2019-03-10T03:50:37.918Z,1.50
2019-03-10T03:53:06.344Z,0.93
2019-03-10T03:55:34.803Z,1.20
2019-03-10T03:58:03.220Z,1.00
2019-03-10T04:00:31.635Z,1.30
2019-03-10T04:03:00.078Z,1.60
2019-03-10T04:05:28.520Z,1.07
2019-03-10T04:07:56.949Z,1.13
2019-03-10T04:10:25.389Z,1.57
2019-03-10T04:12:53.805Z,1.03
2019-03-10T04:15:22.210Z,1.32
2019-03-10T04:17:50.639Z,1.07
2019-03-10T04:20:19.136Z,1.20
2019-03-10T04:22:47.562Z,1.23
2019-03-10T04:25:15.972Z,1.37
2019-03-10T04:27:44.418Z,1.30
2019-03-10T04:30:13.490Z,1.35
2019-03-10T04:32:41.908Z,1.17
2019-03-10T04:35:10.336Z,1.07
2019-03-10T04:37:38.761Z,1.50
2019-03-10T04:40:07.421Z,1.10
2019-03-10T04:42:35.826Z,1.40
2019-03-10T04:45:06.096Z,1.40
2019-03-10T04:47:34.526Z,0.90
2019-03-10T04:50:02.956Z,1.40
2019-03-10T04:52:31.359Z,1.00
2019-03-10T04:55:04.348Z,1.37
2019-03-10T04:57:32.750Z,0.80
2019-03-10T05:00:01.172Z,1.03
2019-03-10T05:02:29.572Z,1.20
2019-03-10T05:04:58.018Z,1.00
2019-03-10T05:07:26.427Z,0.80
2019-03-10T05:09:54.839Z,1.23
2019-03-10T05:12:23.277Z,1.20
2019-03-10T05:14:51.680Z,1.20
2019-03-10T05:17:20.089Z,1.10
2019-03-10T05:19:48.517Z,1.10
2019-03-10T05:22:16.949Z,1.07
2019-03-10T05:24:45.397Z,1.13
2019-03-10T05:27:13.820Z,0.80
2019-03-10T05:29:42.231Z,0.90
2019-03-10T05:32:10.663Z,1.10
2019-03-10T05:34:39.059Z,1.33
2019-03-10T05:37:07.480Z,0.90
2019-03-10T05:39:35.880Z,1.00
2019-03-10T05:42:04.307Z,1.00
2019-03-10T05:44:32.742Z,1.10
2019-03-10T05:47:01.177Z,0.80
2019-03-10T05:49:29.577Z,1.10
2019-03-10T05:51:58.001Z,1.30
2019-03-10T05:54:26.411Z,1.07
2019-03-10T05:56:54.866Z,0.83
2019-03-10T05:59:23.306Z,0.90
2019-03-10T06:01:51.718Z,1.03
2019-03-10T06:04:20.145Z,0.90
2019-03-10T06:06:48.585Z,0.70
2019-03-10T06:09:16.989Z,0.90
2019-03-10T06:11:45.384Z,0.90
2019-03-10T06:14:13.831Z,0.73
2019-03-10T06:16:42.267Z,0.70
2019-03-10T06:19:10.706Z,0.70
2019-03-10T06:21:39.137Z,0.70
2019-03-10T06:24:07.559Z,0.80
2019-03-10T06:26:36.002Z,0.77
2019-03-10T06:29:04.461Z,0.50
2019-03-10T06:31:32.827Z,1.00
2019-03-10T06:34:01.271Z,0.70
2019-03-10T06:36:29.683Z,0.97
2019-03-10T06:38:58.110Z,0.90
2019-03-10T06:41:26.525Z,1.07
2019-03-10T06:43:54.951Z,0.73
2019-03-10T06:46:23.361Z,0.80
2019-03-10T06:48:51.801Z,1.13
2019-03-10T06:51:20.231Z,0.53
2019-03-10T06:53:48.627Z,0.80
2019-03-10T06:56:17.091Z,0.67
2019-03-10T06:58:45.511Z,0.60
2019-03-10T07:01:13.952Z,0.70
2019-03-10T07:03:42.358Z,0.77
2019-03-10T07:06:10.762Z,0.73
2019-03-10T07:08:39.185Z,0.57
2019-03-10T07:11:07.623Z,0.90
2019-03-10T07:13:36.030Z,0.67
2019-03-10T07:16:04.471Z,0.63
2019-03-10T07:18:32.909Z,0.80
2019-03-10T07:21:01.323Z,0.60
2019-03-10T07:23:29.726Z,0.80
2019-03-10T07:26:07.150Z,0.53
2019-03-10T07:28:43.757Z,0.80
2019-03-10T07:31:13.811Z,0.70
2019-03-10T07:33:43.843Z,0.70
2019-03-10T07:36:19.725Z,0.57
2019-03-10T07:38:58.489Z,0.70
2019-03-10T07:41:34.385Z,0.80
2019-03-10T07:44:10.543Z,0.77
2019-03-10T07:46:49.319Z,0.97
2019-03-10T07:49:34.404Z,0.60
2019-03-10T07:52:04.480Z,0.60
2019-03-10T07:54:52.579Z,0.50
2019-03-10T07:57:31.656Z,0.87
2019-03-10T08:00:17.864Z,0.40
2019-03-10T08:02:47.925Z,0.70
2019-03-10T08:05:34.094Z,0.70
2019-03-10T08:08:19.213Z,0.53
2019-03-10T08:10:55.162Z,0.87
2019-03-10T08:13:27.653Z,0.83
2019-03-10T08:15:57.708Z,0.60
2019-03-10T08:18:33.812Z,0.63
2019-03-10T08:21:09.882Z,0.50
2019-03-10T08:23:49.072Z,0.83
2019-03-10T08:26:27.879Z,0.67
2019-03-10T08:28:57.952Z,0.60
2019-03-10T08:31:39.942Z,0.50
2019-03-10T08:34:12.967Z,0.80
2019-03-10T08:36:45.992Z,0.60
2019-03-10T08:39:33.970Z,0.60
2019-03-10T08:42:20.450Z,0.60
2019-03-10T08:44:56.944Z,0.80
2019-03-10T08:47:29.686Z,0.67
2019-03-10T08:49:59.746Z,0.77
2019-03-10T08:52:38.597Z,0.70
2019-03-10T08:55:26.224Z,0.57
2019-03-10T08:57:56.300Z,0.50
2019-03-10T09:00:41.716Z,0.60
2019-03-10T09:03:17.534Z,0.60
2019-03-10T09:05:59.638Z,0.67
2019-03-10T09:08:41.856Z,1.13
2019-03-10T09:11:11.916Z,1.10
2019-03-10T09:13:44.784Z,2.83
2019-03-10T09:16:23.826Z,5.90
2019-03-10T09:19:09.247Z,8.03
2019-03-10T09:21:39.293Z,9.30
2019-03-10T09:24:09.375Z,9.87
2019-03-10T09:26:45.106Z,16.00
2019-03-10T09:29:18.118Z,15.77
2019-03-10T09:31:54.126Z,10.03
2019-03-10T09:34:24.232Z,16.83
2019-03-10T09:36:59.810Z,17.07
2019-03-10T09:39:29.894Z,13.10
2019-03-10T09:42:12.230Z,13.65
2019-03-10T09:44:57.575Z,14.25
2019-03-10T09:47:42.539Z,9.68
2019-03-10T09:50:12.721Z,19.25
2019-03-10T09:52:48.462Z,15.67
2019-03-10T09:55:27.598Z,26.80
2019-03-10T09:58:03.286Z,22.20
2019-03-10T10:00:49.339Z,25.30
2019-03-10T10:03:36.000Z,30.17
2019-03-10T10:06:06.072Z,21.52
2019-03-10T10:08:36.150Z,22.07
2019-03-10T10:11:15.444Z,25.77
2019-03-10T10:13:45.530Z,21.23
2019-03-10T10:16:21.190Z,19.50
2019-03-10T10:18:51.253Z,18.20
2019-03-10T10:21:23.852Z,19.42
2019-03-10T10:23:53.918Z,14.67
2019-03-10T10:26:29.688Z,14.90
2019-03-10T10:29:08.922Z,14.53
2019-03-10T10:31:39.000Z,29.18
2019-03-10T10:34:09.098Z,19.70
2019-03-10T10:36:39.187Z,20.08
2019-03-10T10:39:26.646Z,16.13
2019-03-10T10:41:59.203Z,13.53
2019-03-10T10:44:34.978Z,13.48
2019-03-10T10:47:13.964Z,14.47
2019-03-10T10:49:49.891Z,12.33
2019-03-10T10:52:26.117Z,12.68
2019-03-10T10:54:56.214Z,11.18
2019-03-10T10:57:34.930Z,12.58
2019-03-10T11:00:06.478Z,11.35
2019-03-10T11:02:39.597Z,11.12
2019-03-10T11:05:28.525Z,9.20
2019-03-10T11:08:04.431Z,9.77
2019-03-10T11:10:43.537Z,10.45
2019-03-10T11:13:16.359Z,11.45
2019-03-10T11:15:58.428Z,9.70
2019-03-10T11:18:40.827Z,6.12
2019-03-10T11:21:17.150Z,7.17
2019-03-10T11:23:53.153Z,6.25
2019-03-10T11:26:32.689Z,7.35
2019-03-10T11:29:03.931Z,7.70
2019-03-10T11:31:34.196Z,7.80
2019-03-10T11:34:22.321Z,5.42
2019-03-10T11:37:01.264Z,5.33
2019-03-10T11:39:46.691Z,4.37
2019-03-10T11:42:34.923Z,4.08
2019-03-10T11:45:08.095Z,5.58
2019-03-10T11:47:46.885Z,4.37
2019-03-10T11:50:28.882Z,2.98
2019-03-10T11:53:19.168Z,6.03
2019-03-10T11:55:43.000Z,5.47
2019-03-10T11:58:13.128Z,6.22
2019-03-10T12:00:48.582Z,7.80
2019-03-10T12:03:36.741Z,7.60
2019-03-10T12:06:06.793Z,7.42
2019-03-10T12:08:40.080Z,8.28
2019-03-10T12:11:08.578Z,8.73
2019-03-10T12:13:37.010Z,6.90
2019-03-10T12:16:05.443Z,7.95
2019-03-10T12:18:33.853Z,6.65
2019-03-10T12:21:02.280Z,8.75
2019-03-10T12:23:30.755Z,7.85
2019-03-10T12:25:59.197Z,7.15
2019-03-10T12:28:27.649Z,6.20
2019-03-10T12:30:56.075Z,7.15
2019-03-10T12:33:24.480Z,6.58
2019-03-10T12:35:52.906Z,7.28
2019-03-10T12:38:21.328Z,6.50
2019-03-10T12:40:49.774Z,5.90
2019-03-10T12:43:18.181Z,5.12
2019-03-10T12:45:46.626Z,7.67
2019-03-10T12:48:15.061Z,6.12
2019-03-10T12:50:43.474Z,6.42
2019-03-10T12:53:11.921Z,5.10
2019-03-10T12:55:40.368Z,5.67
2019-03-10T12:58:08.811Z,4.87
2019-03-10T13:00:37.228Z,5.60
2019-03-10T13:03:05.689Z,4.28
2019-03-10T13:05:34.176Z,6.15
2019-03-10T13:08:02.591Z,4.97
2019-03-10T13:10:31.031Z,5.12
2019-03-10T13:12:59.453Z,5.53
2019-03-10T13:15:27.856Z,4.50
2019-03-10T13:17:56.278Z,4.75
2019-03-10T13:20:28.418Z,4.55
2019-03-10T13:22:54.862Z,3.55
2019-03-10T13:25:23.289Z,4.45
2019-03-10T13:27:51.784Z,4.33
2019-03-10T13:30:20.273Z,4.42
2019-03-10T13:32:48.707Z,3.42
2019-03-10T13:35:17.165Z,3.35
2019-03-10T13:37:45.589Z,4.17
2019-03-10T13:40:15.337Z,3.45
2019-03-10T13:42:43.743Z,3.50
2019-03-10T13:45:14.228Z,3.08
2019-03-10T13:47:42.639Z,3.47
2019-03-10T13:50:13.333Z,4.92
2019-03-10T13:52:41.838Z,2.98
2019-03-10T13:55:10.603Z,3.55
2019-03-10T13:57:39.086Z,2.67
2019-03-10T14:00:27.146Z,3.22
2019-03-10T14:02:55.573Z,3.45
2019-03-10T14:05:24.176Z,3.02
2019-03-10T14:07:52.662Z,2.40
2019-03-10T14:10:21.114Z,2.75
2019-03-10T14:12:49.598Z,2.70
2019-03-10T14:15:18.286Z,2.80
2019-03-10T14:17:46.748Z,2.22
2019-03-10T14:20:16.214Z,2.02
2019-03-10T14:22:44.650Z,2.50
2019-03-10T14:25:15.401Z,2.60
2019-03-10T14:27:44.042Z,2.33
2019-03-10T14:30:17.700Z,2.65
2019-03-10T14:32:46.102Z,1.82
2019-03-10T14:35:15.190Z,2.15
2019-03-10T14:37:43.617Z,2.58
2019-03-10T14:40:14.851Z,1.92
2019-03-10T14:42:43.258Z,2.30
2019-03-10T14:47:51.000Z,2.50
2019-03-10T14:50:20.174Z,2.52
2019-03-10T14:52:48.580Z,2.35
2019-03-10T14:55:18.869Z,2.10
2019-03-10T14:57:47.314Z,2.25
2019-03-10T15:00:24.238Z,2.30
2019-03-10T15:02:52.791Z,1.80
2019-03-10T15:05:21.358Z,2.10
2019-03-10T15:07:49.827Z,1.90
2019-03-10T15:10:18.272Z,2.60
2019-03-10T15:12:46.807Z,2.10
2019-03-10T15:15:23.284Z,1.92
2019-03-10T15:17:51.801Z,1.90
2019-03-10T15:20:21.647Z,2.60
2019-03-10T15:22:50.401Z,2.12
2019-03-10T15:25:20.983Z,2.55
2019-03-10T15:27:49.567Z,1.95
2019-03-10T15:30:22.301Z,1.92
2019-03-10T15:32:50.744Z,1.87
2019-03-10T15:35:19.143Z,2.15
2019-03-10T15:37:47.610Z,1.95
2019-03-10T15:40:18.042Z,1.40
2019-03-10T15:42:47.030Z,2.05
2019-03-10T15:45:16.577Z,1.98
2019-03-10T15:47:45.117Z,1.72
2019-03-10T15:50:19.406Z,1.47
2019-03-10T15:52:47.991Z,1.90
2019-03-10T15:55:16.420Z,1.98
2019-03-10T15:57:50.083Z,1.95
2019-03-10T16:00:17.421Z,1.42
2019-03-10T16:02:45.844Z,1.70
2019-03-10T16:05:14.415Z,1.55
2019-03-10T16:07:42.901Z,1.57
2019-03-10T16:10:13.281Z,1.92
2019-03-10T16:12:41.690Z,1.60
2019-03-10T16:15:15.126Z,2.00
2019-03-10T16:17:45.818Z,1.35
2019-03-10T16:20:14.810Z,1.98
2019-03-10T16:22:43.246Z,1.35
2019-03-10T16:25:13.283Z,2.17
2019-03-10T16:27:41.779Z,1.70
2019-03-10T16:30:16.208Z,1.95
2019-03-10T16:32:44.643Z,1.70
2019-03-10T16:35:13.207Z,1.47
2019-03-10T16:37:41.705Z,1.80
2019-03-10T16:40:16.070Z,1.40
2019-03-10T16:42:44.734Z,1.05
2019-03-10T16:45:20.254Z,1.57
2019-03-10T16:47:48.800Z,1.22
2019-03-10T16:50:23.009Z,1.62
2019-03-10T16:52:51.528Z,1.50
2019-03-10T16:55:20.123Z,1.40
2019-03-10T16:57:48.548Z,1.40
2019-03-10T17:00:19.646Z,1.98
2019-03-10T17:02:48.252Z,1.37
2019-03-10T17:05:20.584Z,1.72
2019-03-10T17:07:49.193Z,1.30
2019-03-10T17:10:28.118Z,1.60
2019-03-10T17:12:56.696Z,1.40
2019-03-10T17:15:25.930Z,1.40
2019-03-10T17:17:54.536Z,1.00
2019-03-10T17:20:23.022Z,1.20
2019-03-10T17:22:51.516Z,1.20
2019-03-10T17:25:19.902Z,1.07
2019-03-10T17:27:48.568Z,1.37
2019-03-10T17:30:23.491Z,2.00
2019-03-10T17:32:52.102Z,1.07
2019-03-10T17:35:21.088Z,1.40
2019-03-10T17:37:49.757Z,1.30
2019-03-10T17:40:19.224Z,1.00
2019-03-10T17:42:47.703Z,1.53
2019-03-10T17:45:17.900Z,1.10
2019-03-10T17:47:46.469Z,1.57
2019-03-10T17:50:16.351Z,1.33
2019-03-10T17:52:44.852Z,1.17
2019-03-10T17:55:15.596Z,1.00
2019-03-10T17:57:44.104Z,0.80
2019-03-10T18:00:37.258Z,1.40
2019-03-10T18:03:05.737Z,1.03
2019-03-10T18:05:34.166Z,1.00
2019-03-10T18:08:02.595Z,1.17
2019-03-10T18:10:31.004Z,1.37
2019-03-10T18:12:59.429Z,0.83
2019-03-10T18:15:27.887Z,1.10
2019-03-10T18:17:56.306Z,0.93
2019-03-10T18:20:25.109Z,1.10
2019-03-10T18:22:53.538Z,1.10
2019-03-10T18:25:21.982Z,1.47
2019-03-10T18:27:50.483Z,1.47
2019-03-10T18:30:19.805Z,1.13
2019-03-10T18:32:48.590Z,1.13
2019-03-10T18:35:17.034Z,1.00
2019-03-10T18:37:45.525Z,0.77
2019-03-10T18:40:19.631Z,1.60
2019-03-10T18:42:48.110Z,1.20
2019-03-10T18:45:18.187Z,1.93
2019-03-10T18:47:46.623Z,0.63
2019-03-10T18:50:17.571Z,1.10
2019-03-10T18:52:46.087Z,1.60
2019-03-10T18:55:16.346Z,1.03
2019-03-10T18:57:44.821Z,1.10
2019-03-10T19:00:24.111Z,1.30
2019-03-10T19:02:52.636Z,0.90
2019-03-10T19:05:21.118Z,1.40
2019-03-10T19:07:49.692Z,1.20
2019-03-10T19:10:18.215Z,0.97
2019-03-10T19:12:46.633Z,1.17
2019-03-10T19:15:18.098Z,1.63
2019-03-10T19:17:46.537Z,1.00
2019-03-10T19:20:15.601Z,1.27
2019-03-10T19:22:44.169Z,1.30
2019-03-10T19:25:16.836Z,1.53
2019-03-10T19:27:45.520Z,1.40
2019-03-10T19:30:16.985Z,0.80
2019-03-10T19:32:45.458Z,0.77
2019-03-10T19:35:14.045Z,0.97
2019-03-10T19:37:42.586Z,0.90
2019-03-10T19:40:14.083Z,1.30
2019-03-10T19:42:42.531Z,1.00
2019-03-10T19:45:16.605Z,1.17
2019-03-10T19:47:45.045Z,0.60
2019-03-10T19:50:16.249Z,0.87
2019-03-10T19:52:44.667Z,0.80
2019-03-10T19:55:14.649Z,1.00
2019-03-10T19:57:43.061Z,0.77
2019-03-10T20:00:19.558Z,1.00
2019-03-10T20:02:48.044Z,1.00
2019-03-10T20:05:16.667Z,0.80
2019-03-10T20:07:45.600Z,0.83
2019-03-10T20:10:25.967Z,0.53
2019-03-10T20:12:54.499Z,0.87
2019-03-10T20:15:26.121Z,0.67
2019-03-10T20:17:54.637Z,0.80
2019-03-10T20:20:25.576Z,0.67
2019-03-10T20:22:53.991Z,0.70
2019-03-10T20:25:22.442Z,0.70
2019-03-10T20:27:50.878Z,0.93
2019-03-10T20:30:23.563Z,1.40
2019-03-10T20:32:52.009Z,0.80
2019-03-10T20:35:20.469Z,2.07
2019-03-10T20:37:48.888Z,1.80
2019-03-10T20:40:19.527Z,3.37
2019-03-10T20:42:47.966Z,2.40
2019-03-10T20:45:16.637Z,2.03
2019-03-10T20:47:45.115Z,1.50
2019-03-10T20:50:15.406Z,1.87
2019-03-10T20:52:43.816Z,2.03
2019-03-10T20:55:13.070Z,2.50
2019-03-10T20:57:41.526Z,2.40
2019-03-10T21:00:21.481Z,2.17
2019-03-10T21:02:49.911Z,1.60
2019-03-10T21:05:18.317Z,1.80
2019-03-10T21:07:46.938Z,1.30
2019-03-10T21:10:17.643Z,2.07
2019-03-10T21:12:46.098Z,2.33
2019-03-10T21:15:18.603Z,1.40
2019-03-10T21:17:47.198Z,1.30
2019-03-10T21:20:17.375Z,1.50
2019-03-10T21:22:46.062Z,1.30
2019-03-10T21:25:21.791Z,1.43
2019-03-10T21:27:50.235Z,1.37
2019-03-10T21:30:20.684Z,1.07
2019-03-10T21:32:49.105Z,1.30
2019-03-10T21:35:18.337Z,1.73
2019-03-10T21:37:46.905Z,1.20
2019-03-10T21:40:26.357Z,0.93
2019-03-10T21:42:54.773Z,1.03
2019-03-10T21:45:23.196Z,1.70
2019-03-10T21:47:51.626Z,1.07
2019-03-10T21:50:20.127Z,1.20
2019-03-10T21:52:48.586Z,0.90
2019-03-10T21:55:17.837Z,1.57
2019-03-10T21:57:46.297Z,1.00
2019-03-10T22:00:16.815Z,1.20
2019-03-10T22:02:45.252Z,1.23
2019-03-10T22:05:14.896Z,1.30
2019-03-10T22:07:43.317Z,1.30
2019-03-10T22:10:26.280Z,1.30
2019-03-10T22:12:47.457Z,1.40
2019-03-10T22:15:16.937Z,1.07
2019-03-10T22:17:45.425Z,1.00
2019-03-10T22:20:15.964Z,0.73
2019-03-10T22:22:49.339Z,1.30
2019-03-10T22:25:15.200Z,1.20
2019-03-10T22:27:45.801Z,1.17
2019-03-10T22:30:19.232Z,0.90
2019-03-10T22:32:47.660Z,0.80
2019-03-10T22:35:16.347Z,0.83
2019-03-10T22:37:44.957Z,1.07
2019-03-10T22:40:15.664Z,1.20
2019-03-10T22:42:44.069Z,0.93
2019-03-10T22:45:20.111Z,1.10
2019-03-10T22:47:48.617Z,1.13
2019-03-10T22:50:17.456Z,0.80
2019-03-10T22:52:46.982Z,0.87
2019-03-10T22:55:16.158Z,0.80
2019-03-10T22:57:44.569Z,1.00
2019-03-10T23:00:18.182Z,1.20
2019-03-10T23:02:46.615Z,0.90
2019-03-10T23:05:15.207Z,0.70
2019-03-10T23:07:43.685Z,0.67
2019-03-10T23:10:14.229Z,0.77
2019-03-10T23:12:42.839Z,1.10
2019-03-10T23:15:13.100Z,1.10
2019-03-10T23:17:41.604Z,0.70
2019-03-10T23:20:16.617Z,0.67
2019-03-10T23:22:45.138Z,0.60
2019-03-10T23:25:13.875Z,0.53
2019-03-10T23:27:42.393Z,0.90
2019-03-10T23:30:16.733Z,0.87
2019-03-10T23:32:45.155Z,0.77
2019-03-10T23:35:13.657Z,0.60
2019-03-10T23:37:42.222Z,0.80
2019-03-10T23:40:15.064Z,0.90
2019-03-10T23:42:43.565Z,1.00
2019-03-10T23:45:18.722Z,1.00
2019-03-10T23:47:47.512Z,1.27
2019-03-10T23:50:17.295Z,0.90
2019-03-10T23:52:45.875Z,1.10
2019-03-10T23:55:14.728Z,0.82
2019-03-10T23:57:43.202Z,0.80
